createdAt,value
2019-06-20T00:00:37.545Z,25.03
2019-06-20T00:01:37.533Z,25.02
2019-06-20T00:02:37.518Z,25.03
2019-06-20T00:03:37.515Z,24.95
2019-06-20T00:04:37.501Z,24.88
2019-06-20T00:05:37.490Z,24.95
2019-06-20T00:06:37.474Z,24.91
2019-06-20T00:07:37.461Z,24.91
2019-06-20T00:08:37.471Z,24.98
2019-06-20T00:09:37.444Z,24.84
2019-06-20T00:10:37.431Z,24.90
2019-06-20T00:11:37.417Z,24.90
2019-06-20T00:12:37.410Z,24.84
2019-06-20T00:13:37.414Z,24.87
2019-06-20T00:14:37.416Z,24.78
2019-06-20T00:15:37.376Z,24.83
2019-06-20T00:16:37.357Z,24.71
2019-06-20T00:17:37.354Z,24.73
2019-06-20T00:18:37.343Z,24.76
2019-06-20T00:19:37.323Z,24.76
2019-06-20T00:20:37.319Z,24.83
2019-06-20T00:21:37.318Z,24.85
2019-06-20T00:22:37.294Z,24.84
2019-06-20T00:23:37.287Z,24.90
2019-06-20T00:24:37.270Z,24.87
2019-06-20T00:25:37.256Z,24.85
2019-06-20T00:26:37.250Z,24.87
2019-06-20T00:27:37.239Z,24.85
2019-06-20T00:28:37.235Z,24.90
2019-06-20T00:29:37.211Z,24.80
2019-06-20T00:30:37.202Z,24.80
2019-06-20T00:31:37.194Z,24.73
2019-06-20T00:32:37.189Z,24.76
2019-06-20T00:33:37.180Z,24.76
2019-06-20T00:34:37.156Z,24.60
2019-06-20T00:35:37.142Z,24.50
2019-06-20T00:36:37.130Z,24.34
2019-06-20T00:37:37.128Z,24.27
2019-06-20T00:38:37.123Z,24.20
2019-06-20T00:39:37.095Z,24.16
2019-06-20T00:40:37.105Z,24.10
2019-06-20T00:41:37.085Z,24.06
2019-06-20T00:42:37.069Z,23.97
2019-06-20T00:43:37.085Z,23.88
2019-06-20T00:44:37.049Z,23.87
2019-06-20T00:45:37.108Z,23.73
2019-06-20T00:46:37.037Z,23.76
2019-06-20T00:47:37.015Z,23.69
2019-06-20T00:48:37.014Z,23.50
2019-06-20T00:49:36.993Z,23.55
2019-06-20T00:50:36.981Z,23.43
2019-06-20T00:51:37.018Z,23.35
2019-06-20T00:52:36.958Z,23.32
2019-06-20T00:53:36.971Z,23.38
2019-06-20T00:54:36.938Z,23.39
2019-06-20T00:55:36.925Z,23.33
2019-06-20T00:56:36.917Z,23.28
2019-06-20T00:57:36.902Z,23.19
2019-06-20T00:58:36.901Z,23.13
2019-06-20T00:59:36.880Z,23.19
2019-06-20T01:00:36.868Z,23.16
2019-06-20T01:01:36.858Z,22.98
2019-06-20T01:02:36.849Z,23.10
2019-06-20T01:03:36.867Z,23.07
2019-06-20T01:04:36.828Z,23.02
2019-06-20T01:05:36.823Z,22.98
2019-06-20T01:06:36.803Z,23.01
2019-06-20T01:07:36.793Z,22.91
2019-06-20T01:08:36.784Z,23.02
2019-06-20T01:09:36.783Z,22.98
2019-06-20T01:10:36.766Z,23.05
2019-06-20T01:11:36.767Z,22.98
2019-06-20T01:12:36.743Z,23.07
2019-06-20T01:13:36.726Z,23.01
2019-06-20T01:14:36.730Z,23.16
2019-06-20T01:15:36.702Z,23.17
2019-06-20T01:16:36.694Z,23.27
2019-06-20T01:17:36.687Z,23.28
2019-06-20T01:18:36.691Z,23.31
2019-06-20T01:19:36.673Z,23.38
2019-06-20T01:20:36.654Z,23.35
2019-06-20T01:21:36.641Z,23.46
2019-06-20T01:22:36.627Z,23.57
2019-06-20T01:23:36.617Z,23.63
2019-06-20T01:24:36.610Z,23.69
2019-06-20T01:25:36.589Z,23.66
2019-06-20T01:26:36.581Z,23.72
2019-06-20T01:27:36.568Z,23.70
2019-06-20T01:28:36.554Z,23.76
2019-06-20T01:29:36.552Z,23.69
2019-06-20T01:30:36.547Z,23.68
2019-06-20T01:31:36.546Z,23.65
2019-06-20T01:32:36.512Z,23.68
2019-06-20T01:33:36.509Z,23.66
2019-06-20T01:34:36.500Z,23.66
2019-06-20T01:35:36.479Z,23.61
2019-06-20T01:36:36.472Z,23.58
2019-06-20T01:37:36.455Z,23.61
2019-06-20T01:38:36.444Z,23.55
2019-06-20T01:39:36.447Z,23.51
2019-06-20T01:40:36.427Z,23.53
2019-06-20T01:41:36.419Z,23.51
2019-06-20T01:42:36.404Z,23.38
2019-06-20T01:43:49.476Z,23.32
2019-06-20T01:44:37.389Z,23.31
2019-06-20T01:45:36.375Z,23.35
2019-06-20T01:46:36.359Z,23.27
2019-06-20T01:47:36.345Z,23.19
2019-06-20T01:48:36.339Z,23.12
2019-06-20T01:49:36.331Z,23.13
2019-06-20T01:50:36.312Z,23.12
2019-06-20T01:51:36.303Z,23.07
2019-06-20T01:52:36.297Z,23.05
2019-06-20T01:53:36.276Z,23.01
2019-06-20T01:54:36.279Z,23.02
2019-06-20T01:55:36.300Z,22.94
2019-06-20T01:56:36.246Z,22.94
2019-06-20T01:57:36.236Z,22.92
2019-06-20T01:58:36.221Z,22.92
2019-06-20T01:59:36.217Z,22.82
2019-06-20T02:00:36.205Z,22.77
2019-06-20T02:01:36.193Z,22.76
2019-06-20T02:02:36.193Z,22.79
2019-06-20T02:03:36.174Z,22.73
2019-06-20T02:04:36.174Z,22.67
2019-06-20T02:05:36.146Z,22.68
2019-06-20T02:06:36.135Z,22.60
2019-06-20T02:07:36.120Z,22.64
2019-06-20T02:08:36.108Z,22.51
2019-06-20T02:09:36.109Z,22.45
2019-06-20T02:10:36.091Z,22.43
2019-06-20T02:11:36.074Z,22.45
2019-06-20T02:12:36.069Z,22.51
2019-06-20T02:13:36.052Z,22.47
2019-06-20T02:14:36.073Z,22.37
2019-06-20T02:15:36.033Z,22.47
2019-06-20T02:16:36.023Z,22.47
2019-06-20T02:17:36.011Z,22.39
2019-06-20T02:18:35.994Z,22.46
2019-06-20T02:19:35.989Z,22.30
2019-06-20T02:20:35.981Z,22.36
2019-06-20T02:21:35.965Z,22.40
2019-06-20T02:22:35.950Z,22.39
2019-06-20T02:23:35.961Z,22.37
2019-06-20T02:24:35.932Z,22.39
2019-06-20T02:25:35.928Z,22.35
2019-06-20T02:26:35.911Z,22.36
2019-06-20T02:27:35.903Z,22.33
2019-06-20T02:28:35.888Z,22.24
2019-06-20T02:29:35.878Z,22.24
2019-06-20T02:30:35.868Z,22.31
2019-06-20T02:31:35.862Z,22.17
2019-06-20T02:32:35.847Z,22.20
2019-06-20T02:33:35.832Z,22.18
2019-06-20T02:34:35.820Z,22.09
2019-06-20T02:35:35.820Z,22.10
2019-06-20T02:36:35.796Z,22.22
2019-06-20T02:37:35.783Z,22.12
2019-06-20T02:38:35.786Z,22.15
2019-06-20T02:39:35.764Z,22.17
2019-06-20T02:40:35.755Z,22.12
2019-06-20T02:41:35.757Z,22.05
2019-06-20T02:42:35.731Z,22.02
2019-06-20T02:43:35.720Z,22.07
2019-06-20T02:44:35.711Z,21.94
2019-06-20T02:45:35.700Z,22.05
2019-06-20T02:46:35.680Z,22.00
2019-06-20T02:47:35.674Z,22.02
2019-06-20T02:48:35.678Z,22.00
2019-06-20T02:49:35.656Z,21.99
2019-06-20T02:50:35.650Z,21.92
2019-06-20T02:51:35.636Z,21.94
2019-06-20T02:52:35.620Z,21.96
2019-06-20T02:53:35.606Z,21.91
2019-06-20T02:54:35.593Z,21.96
2019-06-20T02:55:35.588Z,21.96
2019-06-20T02:56:35.569Z,21.94
2019-06-20T02:57:35.565Z,21.79
2019-06-20T02:58:35.545Z,21.80
2019-06-20T02:59:35.535Z,21.80
2019-06-20T03:00:35.539Z,21.82
2019-06-20T03:01:35.518Z,21.80
2019-06-20T03:02:35.508Z,21.80
2019-06-20T03:03:35.508Z,21.80
2019-06-20T03:04:35.480Z,21.79
2019-06-20T03:05:35.482Z,21.82
2019-06-20T03:06:35.456Z,21.75
2019-06-20T03:07:35.446Z,21.71
2019-06-20T03:08:35.433Z,21.72
2019-06-20T03:09:35.423Z,21.62
2019-06-20T03:10:35.420Z,21.61
2019-06-20T03:11:35.407Z,21.62
2019-06-20T03:12:35.401Z,21.62
2019-06-20T03:13:35.413Z,21.68
2019-06-20T03:14:44.968Z,21.62
2019-06-20T03:15:36.365Z,21.56
2019-06-20T03:16:35.346Z,21.59
2019-06-20T03:17:35.339Z,21.58
2019-06-20T03:18:35.324Z,21.54
2019-06-20T03:19:35.316Z,21.65
2019-06-20T03:20:35.318Z,21.65
2019-06-20T03:21:35.296Z,21.68
2019-06-20T03:22:35.286Z,21.64
2019-06-20T03:23:35.266Z,21.62
2019-06-20T03:24:35.258Z,21.65
2019-06-20T03:25:35.261Z,21.62
2019-06-20T03:26:35.234Z,21.52
2019-06-20T03:27:35.225Z,21.59
2019-06-20T03:28:35.222Z,21.54
2019-06-20T03:29:35.201Z,21.52
2019-06-20T03:30:35.206Z,21.56
2019-06-20T03:31:35.181Z,21.58
2019-06-20T03:32:35.171Z,21.61
2019-06-20T03:33:35.157Z,21.52
2019-06-20T03:34:35.147Z,21.46
2019-06-20T03:35:35.146Z,21.56
2019-06-20T03:36:35.126Z,21.53
2019-06-20T03:37:35.119Z,21.47
2019-06-20T03:38:35.109Z,21.44
2019-06-20T03:39:35.093Z,21.53
2019-06-20T03:40:35.085Z,21.44
2019-06-20T03:41:35.073Z,21.46
2019-06-20T03:42:35.055Z,21.54
2019-06-20T03:43:35.044Z,21.52
2019-06-20T03:44:35.033Z,21.58
2019-06-20T03:45:35.038Z,21.53
2019-06-20T03:46:35.024Z,21.53
2019-06-20T03:47:35.018Z,21.58
2019-06-20T03:48:34.998Z,21.56
2019-06-20T03:49:34.995Z,21.59
2019-06-20T03:50:34.994Z,21.61
2019-06-20T03:51:34.964Z,21.54
2019-06-20T03:52:34.947Z,21.59
2019-06-20T03:53:34.959Z,21.64
2019-06-20T03:54:34.927Z,21.62
2019-06-20T03:55:34.928Z,21.62
2019-06-20T03:56:34.905Z,21.64
2019-06-20T03:57:34.898Z,21.68
2019-06-20T03:58:34.880Z,21.67
2019-06-20T03:59:34.874Z,21.71
2019-06-20T04:00:34.886Z,21.72
2019-06-20T04:01:34.847Z,21.68
2019-06-20T04:02:34.831Z,21.67
2019-06-20T04:03:34.822Z,21.72
2019-06-20T04:04:34.808Z,21.77
2019-06-20T04:05:34.801Z,21.71
2019-06-20T04:06:34.796Z,21.71
2019-06-20T04:07:34.782Z,21.72
2019-06-20T04:08:34.771Z,21.68
2019-06-20T04:09:34.758Z,21.74
2019-06-20T04:10:34.751Z,21.75
2019-06-20T04:11:34.744Z,21.80
2019-06-20T04:12:34.727Z,21.79
2019-06-20T04:13:34.732Z,21.69
2019-06-20T04:14:34.709Z,21.68
2019-06-20T04:15:34.690Z,21.74
2019-06-20T04:16:34.685Z,21.64
2019-06-20T04:17:34.665Z,21.67
2019-06-20T04:18:34.653Z,21.67
2019-06-20T04:19:34.641Z,21.71
2019-06-20T04:20:34.632Z,21.68
2019-06-20T04:21:34.640Z,21.74
2019-06-20T04:22:34.613Z,21.68
2019-06-20T04:23:34.598Z,21.64
2019-06-20T04:24:34.593Z,21.67
2019-06-20T04:25:34.577Z,21.64
2019-06-20T04:26:34.580Z,21.68
2019-06-20T04:27:34.562Z,21.68
2019-06-20T04:28:34.552Z,21.71
2019-06-20T04:29:36.012Z,21.74
2019-06-20T04:30:34.548Z,21.69
2019-06-20T04:31:34.522Z,21.68
2019-06-20T04:32:34.505Z,21.68
2019-06-20T04:33:34.492Z,21.72
2019-06-20T04:34:34.490Z,21.72
2019-06-20T04:35:34.470Z,21.79
2019-06-20T04:36:34.468Z,21.77
2019-06-20T04:37:34.443Z,21.82
2019-06-20T04:38:34.431Z,21.80
2019-06-20T04:39:34.424Z,21.77
2019-06-20T04:40:34.414Z,21.82
2019-06-20T04:41:34.410Z,21.82
2019-06-20T04:42:34.390Z,21.79
2019-06-20T04:43:34.382Z,21.80
2019-06-20T04:44:34.370Z,21.91
2019-06-20T04:45:35.692Z,21.80
2019-06-20T04:46:34.363Z,21.88
2019-06-20T04:47:34.334Z,21.80
2019-06-20T04:48:34.327Z,21.86
2019-06-20T04:49:34.313Z,21.77
2019-06-20T04:50:34.390Z,21.92
2019-06-20T04:51:34.309Z,21.91
2019-06-20T04:52:34.282Z,21.90
2019-06-20T04:53:34.268Z,21.94
2019-06-20T04:54:34.257Z,21.92
2019-06-20T04:55:34.245Z,22.03
2019-06-20T04:56:34.244Z,22.07
2019-06-20T04:57:34.229Z,22.03
2019-06-20T04:58:34.219Z,22.14
2019-06-20T04:59:34.203Z,22.07
2019-06-20T05:00:34.211Z,22.18
2019-06-20T05:01:34.204Z,22.15
2019-06-20T05:02:34.187Z,22.28
2019-06-20T05:03:34.155Z,22.37
2019-06-20T05:04:34.146Z,22.33
2019-06-20T05:05:34.141Z,22.37
2019-06-20T05:06:34.130Z,22.37
2019-06-20T05:07:34.105Z,22.39
2019-06-20T05:08:34.104Z,22.42
2019-06-20T05:09:34.090Z,22.47
2019-06-20T05:10:34.082Z,22.42
2019-06-20T05:11:34.076Z,22.51
2019-06-20T05:12:34.047Z,22.47
2019-06-20T05:13:34.037Z,22.46
2019-06-20T05:14:34.025Z,22.60
2019-06-20T05:15:34.022Z,22.68
2019-06-20T05:16:34.025Z,22.64
2019-06-20T05:17:33.992Z,22.64
2019-06-20T05:18:33.989Z,22.70
2019-06-20T05:19:33.969Z,22.67
2019-06-20T05:20:33.965Z,22.82
2019-06-20T05:21:33.955Z,22.76
2019-06-20T05:22:33.946Z,22.76
2019-06-20T05:23:33.932Z,22.82
2019-06-20T05:24:33.919Z,22.79
2019-06-20T05:25:33.910Z,22.82
2019-06-20T05:26:33.899Z,22.90
2019-06-20T05:27:33.895Z,22.86
2019-06-20T05:28:33.874Z,22.94
2019-06-20T05:29:33.864Z,22.97
2019-06-20T05:30:33.853Z,22.91
2019-06-20T05:31:33.847Z,22.92
2019-06-20T05:32:33.856Z,22.91
2019-06-20T05:33:33.836Z,22.97
2019-06-20T05:34:33.809Z,22.98
2019-06-20T05:35:33.803Z,23.09
2019-06-20T05:36:33.788Z,23.05
2019-06-20T05:37:33.797Z,23.07
2019-06-20T05:38:33.765Z,23.07
2019-06-20T05:39:33.753Z,23.07
2019-06-20T05:40:37.143Z,23.04
2019-06-20T05:41:33.732Z,23.07
2019-06-20T05:42:33.731Z,23.01
2019-06-20T05:43:33.709Z,22.98
2019-06-20T05:44:33.721Z,23.05
2019-06-20T05:45:33.685Z,23.12
2019-06-20T05:46:33.675Z,23.15
2019-06-20T05:47:33.672Z,23.17
2019-06-20T05:48:33.651Z,23.20
2019-06-20T05:49:33.642Z,23.20
2019-06-20T05:50:33.646Z,23.28
2019-06-20T05:51:33.612Z,23.22
2019-06-20T05:52:33.611Z,23.32
2019-06-20T05:53:33.595Z,23.32
2019-06-20T05:54:33.587Z,23.33
2019-06-20T05:55:33.571Z,23.42
2019-06-20T05:56:33.557Z,23.36
2019-06-20T05:57:33.555Z,23.35
2019-06-20T05:58:33.532Z,23.32
2019-06-20T05:59:33.536Z,23.38
2019-06-20T06:00:33.524Z,23.40
2019-06-20T06:01:33.501Z,23.40
2019-06-20T06:02:33.517Z,23.46
2019-06-20T06:03:33.638Z,23.47
2019-06-20T06:04:33.474Z,23.47
2019-06-20T06:05:33.459Z,23.46
2019-06-20T06:06:33.449Z,23.55
2019-06-20T06:07:33.431Z,23.51
2019-06-20T06:08:34.115Z,23.50
2019-06-20T06:09:33.416Z,23.53
2019-06-20T06:10:33.406Z,23.53
2019-06-20T06:11:34.117Z,23.54
2019-06-20T06:12:33.375Z,23.54
2019-06-20T06:13:33.371Z,23.57
2019-06-20T06:14:33.361Z,23.42
2019-06-20T06:15:33.359Z,23.43
2019-06-20T06:16:33.339Z,23.36
2019-06-20T06:17:33.323Z,23.36
2019-06-20T06:18:33.323Z,23.35
2019-06-20T06:19:33.295Z,23.31
2019-06-20T06:20:33.284Z,23.13
2019-06-20T06:21:33.271Z,23.15
2019-06-20T06:22:33.267Z,23.04
2019-06-20T06:23:33.267Z,23.04
2019-06-20T06:24:33.242Z,22.98
2019-06-20T06:25:33.227Z,23.04
2019-06-20T06:26:33.228Z,23.00
2019-06-20T06:27:33.209Z,22.92
2019-06-20T06:28:33.202Z,22.83
2019-06-20T06:29:33.200Z,22.79
2019-06-20T06:30:33.180Z,22.76
2019-06-20T06:31:33.161Z,22.70
2019-06-20T06:32:39.978Z,22.62
2019-06-20T06:33:34.151Z,22.33
2019-06-20T06:34:33.164Z,22.12
2019-06-20T06:35:33.121Z,21.77
2019-06-20T06:36:33.111Z,21.59
2019-06-20T06:37:33.100Z,21.35
2019-06-20T06:38:33.103Z,21.01
2019-06-20T06:39:33.086Z,20.85
2019-06-20T06:40:33.087Z,20.70
2019-06-20T06:41:33.061Z,20.52
2019-06-20T06:42:33.041Z,20.47
2019-06-20T06:43:33.035Z,20.38
2019-06-20T06:44:33.020Z,20.31
2019-06-20T06:45:33.009Z,20.24
2019-06-20T06:46:43.709Z,20.29
2019-06-20T06:47:33.978Z,20.23
2019-06-20T06:48:32.979Z,20.33
2019-06-20T06:49:32.974Z,20.39
2019-06-20T06:50:32.952Z,20.38
2019-06-20T06:51:32.940Z,20.48
2019-06-20T06:52:32.929Z,20.35
2019-06-20T06:53:32.927Z,20.48
2019-06-20T06:54:32.902Z,20.54
2019-06-20T06:55:32.892Z,20.52
2019-06-20T06:56:32.905Z,20.51
2019-06-20T06:57:32.901Z,20.55
2019-06-20T06:58:32.871Z,20.59
2019-06-20T06:59:32.845Z,20.67
2019-06-20T07:00:32.839Z,20.55
2019-06-20T07:01:32.826Z,20.52
2019-06-20T07:02:32.815Z,20.62
2019-06-20T07:03:32.817Z,20.66
2019-06-20T07:04:32.794Z,20.59
2019-06-20T07:05:32.776Z,20.69
2019-06-20T07:06:32.773Z,20.66
2019-06-20T07:07:32.754Z,20.61
2019-06-20T07:08:32.751Z,20.69
2019-06-20T07:09:35.422Z,20.72
2019-06-20T07:10:32.722Z,20.80
2019-06-20T07:11:32.714Z,20.92
2019-06-20T07:12:32.701Z,20.97
2019-06-20T07:13:32.709Z,21.09
2019-06-20T07:14:32.689Z,21.16
2019-06-20T07:15:32.667Z,21.14
2019-06-20T07:16:32.678Z,21.21
2019-06-20T07:17:32.645Z,21.28
2019-06-20T07:18:32.655Z,21.29
2019-06-20T07:19:32.624Z,21.32
2019-06-20T07:20:32.614Z,21.43
2019-06-20T07:21:32.621Z,21.42
2019-06-20T07:22:32.591Z,21.38
2019-06-20T07:23:32.610Z,21.37
2019-06-20T07:24:32.569Z,21.27
2019-06-20T07:25:32.560Z,21.27
2019-06-20T07:26:32.551Z,21.25
2019-06-20T07:27:32.532Z,21.29
2019-06-20T07:28:32.524Z,21.42
2019-06-20T07:29:32.521Z,21.42
2019-06-20T07:30:32.509Z,21.47
2019-06-20T07:31:32.490Z,21.50
2019-06-20T07:32:32.482Z,21.61
2019-06-20T07:33:32.471Z,21.53
2019-06-20T07:34:32.464Z,21.64
2019-06-20T07:35:32.460Z,21.64
2019-06-20T07:36:32.439Z,21.71
2019-06-20T07:37:32.426Z,21.75
2019-06-20T07:38:32.404Z,21.84
2019-06-20T07:39:32.404Z,21.83
2019-06-20T07:40:32.387Z,21.86
2019-06-20T07:41:32.371Z,21.79
2019-06-20T07:42:32.361Z,21.82
2019-06-20T07:43:32.422Z,21.75
2019-06-20T07:44:32.346Z,21.75
2019-06-20T07:45:32.337Z,21.74
2019-06-20T07:46:32.392Z,21.72
2019-06-20T07:47:32.308Z,21.67
2019-06-20T07:48:32.305Z,21.65
2019-06-20T07:49:32.384Z,21.64
2019-06-20T07:50:32.293Z,21.64
2019-06-20T07:51:32.259Z,21.71
2019-06-20T07:52:32.257Z,21.61
2019-06-20T07:53:32.235Z,21.64
2019-06-20T07:54:32.232Z,21.64
2019-06-20T07:55:32.212Z,21.59
2019-06-20T07:56:32.206Z,21.69
2019-06-20T07:57:32.196Z,21.61
2019-06-20T07:58:32.187Z,21.69
2019-06-20T07:59:32.191Z,21.71
2019-06-20T08:00:32.163Z,21.67
2019-06-20T08:01:32.147Z,21.75
2019-06-20T08:02:32.135Z,21.74
2019-06-20T08:03:32.175Z,21.77
2019-06-20T08:04:32.121Z,21.72
2019-06-20T08:05:32.107Z,21.82
2019-06-20T08:06:32.094Z,21.75
2019-06-20T08:07:32.090Z,21.82
2019-06-20T08:08:32.066Z,21.71
2019-06-20T08:09:44.329Z,21.79
2019-06-20T08:10:33.054Z,21.79
2019-06-20T08:11:32.040Z,21.80
2019-06-20T08:12:32.025Z,21.84
2019-06-20T08:13:32.013Z,21.75
2019-06-20T08:14:32.016Z,21.77
2019-06-20T08:15:31.991Z,21.80
2019-06-20T08:16:31.981Z,21.88
2019-06-20T08:17:35.683Z,21.86
2019-06-20T08:18:31.951Z,21.91
2019-06-20T08:19:31.954Z,21.91
2019-06-20T08:20:31.935Z,21.94
2019-06-20T08:21:31.926Z,21.99
2019-06-20T08:22:31.915Z,22.06
2019-06-20T08:23:31.905Z,22.05
2019-06-20T08:24:31.898Z,22.12
2019-06-20T08:25:31.878Z,22.09
2019-06-20T08:26:31.868Z,22.06
2019-06-20T08:27:31.850Z,22.22
2019-06-20T08:28:31.842Z,22.24
2019-06-20T08:29:31.845Z,22.33
2019-06-20T08:30:31.820Z,22.43
2019-06-20T08:31:31.816Z,22.42
2019-06-20T08:32:31.794Z,22.46
2019-06-20T08:33:31.792Z,22.51
2019-06-20T08:34:31.789Z,22.55
2019-06-20T08:35:31.793Z,22.62
2019-06-20T08:36:31.758Z,22.60
2019-06-20T08:37:31.738Z,22.52
2019-06-20T08:38:31.733Z,22.68
2019-06-20T08:39:31.726Z,22.58
2019-06-20T08:40:31.708Z,22.64
2019-06-20T08:41:31.699Z,22.64
2019-06-20T08:42:31.691Z,22.68
2019-06-20T08:43:31.682Z,22.57
2019-06-20T08:44:31.713Z,22.65
2019-06-20T08:45:31.654Z,22.67
2019-06-20T08:46:31.642Z,22.77
2019-06-20T08:47:31.633Z,22.91
2019-06-20T08:48:31.618Z,22.95
2019-06-20T08:49:31.605Z,23.02
2019-06-20T08:50:31.606Z,23.15
2019-06-20T08:51:31.581Z,23.13
2019-06-20T08:52:31.572Z,23.27
2019-06-20T08:53:31.563Z,23.25
2019-06-20T08:54:31.553Z,23.31
2019-06-20T08:55:31.565Z,23.35
2019-06-20T08:56:31.535Z,23.32
2019-06-20T08:57:31.513Z,23.33
2019-06-20T08:58:31.508Z,23.33
2019-06-20T08:59:31.490Z,23.33
2019-06-20T09:00:31.522Z,23.28
2019-06-20T09:01:31.482Z,23.33
2019-06-20T09:02:31.457Z,23.28
2019-06-20T09:03:31.451Z,23.31
2019-06-20T09:04:31.440Z,23.32
2019-06-20T09:05:31.440Z,23.36
2019-06-20T09:06:31.427Z,23.38
2019-06-20T09:07:31.410Z,23.46
2019-06-20T09:08:31.405Z,23.40
2019-06-20T09:09:31.382Z,23.47
2019-06-20T09:10:31.392Z,23.40
2019-06-20T09:11:31.365Z,23.47
2019-06-20T09:12:31.355Z,23.46
2019-06-20T09:13:31.335Z,23.46
2019-06-20T09:14:31.333Z,23.40
2019-06-20T09:15:31.330Z,23.38
2019-06-20T09:16:31.310Z,23.33
2019-06-20T09:17:31.313Z,23.32
2019-06-20T09:18:31.287Z,23.32
2019-06-20T09:19:31.269Z,23.20
2019-06-20T09:20:31.267Z,23.19
2019-06-20T09:21:31.252Z,23.12
2019-06-20T09:22:31.247Z,23.01
2019-06-20T09:23:31.228Z,23.01
2019-06-20T09:24:31.218Z,23.09
2019-06-20T09:25:31.211Z,23.02
2019-06-20T09:26:31.219Z,23.00
2019-06-20T09:27:31.191Z,23.04
2019-06-20T09:28:31.203Z,23.13
2019-06-20T09:29:41.307Z,23.16
2019-06-20T09:30:32.162Z,23.32
2019-06-20T09:31:31.143Z,23.32
2019-06-20T09:32:31.124Z,23.40
2019-06-20T09:33:31.119Z,23.55
2019-06-20T09:34:31.113Z,23.55
2019-06-20T09:35:31.105Z,23.60
2019-06-20T09:36:31.083Z,23.58
2019-06-20T09:37:31.073Z,23.61
2019-06-20T09:38:31.061Z,23.58
2019-06-20T09:39:31.050Z,23.65
2019-06-20T09:40:31.058Z,23.68
2019-06-20T09:41:31.028Z,23.70
2019-06-20T09:42:31.015Z,23.65
2019-06-20T09:43:31.007Z,23.57
2019-06-20T09:44:30.996Z,23.63
2019-06-20T09:45:30.996Z,23.75
2019-06-20T09:46:30.967Z,23.65
2019-06-20T09:47:30.969Z,23.70
2019-06-20T09:48:30.952Z,23.75
2019-06-20T09:49:30.936Z,23.76
2019-06-20T09:50:30.935Z,23.85
2019-06-20T09:51:30.924Z,23.84
2019-06-20T09:52:30.911Z,23.79
2019-06-20T09:53:30.898Z,23.78
2019-06-20T09:54:30.888Z,23.78
2019-06-20T09:55:30.875Z,23.88
2019-06-20T09:56:30.872Z,23.84
2019-06-20T09:57:30.847Z,23.91
2019-06-20T09:58:30.842Z,24.03
2019-06-20T09:59:30.828Z,24.20
2019-06-20T10:00:30.836Z,24.21
2019-06-20T10:01:30.823Z,24.20
2019-06-20T10:02:30.801Z,24.09
2019-06-20T10:03:30.788Z,24.30
2019-06-20T10:04:30.770Z,24.27
2019-06-20T10:05:30.764Z,24.24
2019-06-20T10:06:30.758Z,24.30
2019-06-20T10:07:30.743Z,24.32
2019-06-20T10:08:30.730Z,24.35
2019-06-20T10:09:30.721Z,24.39
2019-06-20T10:10:30.707Z,24.46
2019-06-20T10:11:30.700Z,24.52
2019-06-20T10:12:30.697Z,24.64
2019-06-20T10:13:32.768Z,24.65
2019-06-20T10:14:30.671Z,24.71
2019-06-20T10:15:30.672Z,24.76
2019-06-20T10:16:44.980Z,24.77
2019-06-20T10:17:31.636Z,24.84
2019-06-20T10:18:30.631Z,24.80
2019-06-20T10:19:30.611Z,24.95
2019-06-20T10:20:30.595Z,25.02
2019-06-20T10:21:30.590Z,25.05
2019-06-20T10:22:30.577Z,25.10
2019-06-20T10:23:30.563Z,24.99
2019-06-20T10:24:30.549Z,25.02
2019-06-20T10:25:30.543Z,25.08
2019-06-20T10:26:30.552Z,25.20
2019-06-20T10:27:30.521Z,25.25
2019-06-20T10:28:30.510Z,25.23
2019-06-20T10:29:30.499Z,25.15
2019-06-20T10:30:30.483Z,25.06
2019-06-20T10:31:30.488Z,25.05
2019-06-20T10:32:30.460Z,25.08
2019-06-20T10:33:30.453Z,25.14
2019-06-20T10:34:31.196Z,25.33
2019-06-20T10:35:30.425Z,25.87
2019-06-20T10:36:30.434Z,27.00
2019-06-20T10:37:30.413Z,28.27
2019-06-20T10:38:30.398Z,29.43
2019-06-20T10:39:30.387Z,30.22
2019-06-20T10:40:30.372Z,31.36
2019-06-20T10:41:30.375Z,32.37
2019-06-20T10:42:30.352Z,33.22
2019-06-20T10:43:30.339Z,33.97
2019-06-20T10:44:30.346Z,34.34
2019-06-20T10:45:30.324Z,34.82
2019-06-20T10:46:30.319Z,34.81
2019-06-20T10:47:34.997Z,34.56
2019-06-20T10:48:31.288Z,35.10
2019-06-20T10:49:30.315Z,35.48
2019-06-20T10:50:30.276Z,36.22
2019-06-20T10:51:30.272Z,36.56
2019-06-20T10:52:30.265Z,36.50
2019-06-20T10:53:30.247Z,35.68
2019-06-20T10:54:30.252Z,34.28
2019-06-20T10:55:30.241Z,33.37
2019-06-20T10:56:30.236Z,32.30
2019-06-20T10:57:30.208Z,31.26
2019-06-20T10:58:30.197Z,30.27
2019-06-20T10:59:30.188Z,29.30
2019-06-20T11:00:31.868Z,28.62
2019-06-20T11:01:30.195Z,28.25
2019-06-20T11:02:30.158Z,27.99
2019-06-20T11:03:30.150Z,28.03
2019-06-20T11:04:30.156Z,28.09
2019-06-20T11:05:30.129Z,28.11
2019-06-20T11:06:30.121Z,28.03
2019-06-20T11:07:30.130Z,27.75
2019-06-20T11:08:30.101Z,27.41
2019-06-20T11:09:30.096Z,27.59
2019-06-20T11:10:30.076Z,28.02
2019-06-20T11:11:30.076Z,28.68
2019-06-20T11:12:42.603Z,29.36
2019-06-20T11:13:31.057Z,30.65
2019-06-20T11:14:30.043Z,31.43
2019-06-20T11:15:30.032Z,31.88
2019-06-20T11:16:30.023Z,32.92
2019-06-20T11:17:30.016Z,33.39
2019-06-20T11:18:30.009Z,33.98
2019-06-20T11:19:29.990Z,34.52
2019-06-20T11:20:29.976Z,35.33
2019-06-20T11:21:29.982Z,35.82
2019-06-20T11:22:29.970Z,35.89
2019-06-20T11:23:29.947Z,36.56
2019-06-20T11:24:29.947Z,36.75
2019-06-20T11:25:29.939Z,37.13
2019-06-20T11:26:29.925Z,37.41
2019-06-20T11:27:29.924Z,37.00
2019-06-20T11:28:29.906Z,36.81
2019-06-20T11:29:29.904Z,37.21
2019-06-20T11:30:42.132Z,36.69
2019-06-20T11:31:30.878Z,36.66
2019-06-20T11:32:29.896Z,36.53
2019-06-20T11:33:29.865Z,35.74
2019-06-20T11:34:29.853Z,36.13
2019-06-20T11:35:29.849Z,36.29
2019-06-20T11:36:29.840Z,36.51
2019-06-20T11:37:29.840Z,36.83
2019-06-20T11:38:29.824Z,36.99
2019-06-20T11:39:29.817Z,37.79
2019-06-20T11:40:29.809Z,38.13
2019-06-20T11:41:29.796Z,38.59
2019-06-20T11:42:29.810Z,38.25
2019-06-20T11:43:29.785Z,37.88
2019-06-20T11:44:29.786Z,37.55
2019-06-20T11:45:29.763Z,37.25
2019-06-20T11:46:29.753Z,36.71
2019-06-20T11:47:29.758Z,36.98
2019-06-20T11:48:29.738Z,37.09
2019-06-20T11:49:29.735Z,36.98
2019-06-20T11:50:29.724Z,36.87
2019-06-20T11:51:29.748Z,36.95
2019-06-20T11:52:33.820Z,37.22
2019-06-20T11:53:31.862Z,37.25
2019-06-20T11:54:29.698Z,37.02
2019-06-20T11:55:29.698Z,36.83
2019-06-20T11:56:29.675Z,36.53
2019-06-20T11:57:29.679Z,36.71
2019-06-20T11:58:29.656Z,36.01
2019-06-20T11:59:29.743Z,35.21
2019-06-20T12:00:29.649Z,34.12
2019-06-20T12:01:32.842Z,33.39
2019-06-20T12:02:29.650Z,32.50
2019-06-20T12:03:29.617Z,31.58
2019-06-20T12:04:29.612Z,31.32
2019-06-20T12:05:29.607Z,31.02
2019-06-20T12:06:29.590Z,31.17
2019-06-20T12:07:29.606Z,31.89
2019-06-20T12:08:29.573Z,32.35
2019-06-20T12:09:29.566Z,33.01
2019-06-20T12:10:29.552Z,33.37
2019-06-20T12:11:29.544Z,33.12
2019-06-20T12:12:29.532Z,32.55
2019-06-20T12:13:29.535Z,32.28
2019-06-20T12:14:29.512Z,31.92
2019-06-20T12:15:29.506Z,31.68
2019-06-20T12:16:29.502Z,31.57
2019-06-20T12:17:29.497Z,31.36
2019-06-20T12:18:29.485Z,31.31
2019-06-20T12:19:29.468Z,30.73
2019-06-20T12:20:29.458Z,30.67
2019-06-20T12:21:29.454Z,31.29
2019-06-20T12:22:29.437Z,31.85
2019-06-20T12:23:29.439Z,32.59
2019-06-20T12:24:29.412Z,32.97
2019-06-20T12:25:29.411Z,33.49
2019-06-20T12:26:29.396Z,34.09
2019-06-20T12:27:29.396Z,34.06
2019-06-20T12:28:29.424Z,34.44
2019-06-20T12:29:29.380Z,34.89
2019-06-20T12:30:29.360Z,35.36
2019-06-20T12:31:29.354Z,35.59
2019-06-20T12:32:29.338Z,35.66
2019-06-20T12:33:29.348Z,35.85
2019-06-20T12:34:29.335Z,35.94
2019-06-20T12:35:29.316Z,35.59
2019-06-20T12:36:29.303Z,35.60
2019-06-20T12:37:29.296Z,35.11
2019-06-20T12:38:29.322Z,35.21
2019-06-20T12:39:29.280Z,35.15
2019-06-20T12:40:29.269Z,34.64
2019-06-20T12:41:29.261Z,34.32
2019-06-20T12:42:29.260Z,34.08
2019-06-20T12:43:29.261Z,34.27
2019-06-20T12:44:29.241Z,34.52
2019-06-20T12:45:29.230Z,34.13
2019-06-20T12:46:29.221Z,33.91
2019-06-20T12:47:29.211Z,33.51
2019-06-20T12:48:29.208Z,33.37
2019-06-20T12:49:29.197Z,33.22
2019-06-20T12:50:29.188Z,32.93
2019-06-20T12:51:29.181Z,33.01
2019-06-20T12:52:29.166Z,33.09